Flugplatz Mosenberg

Für EDEM sind keine METAR/TAF Berichte vorhanden.
Es werden die Flugwettermeldungen vom Flugplatz Fritzlar Airport in 11 km Entfernung angezeigt.

Bericht für ETHF

vom 20.02. um 20:39 UTC

Wind 12 kt aus 210°

Sichtweite 10 km oder mehr

schwacher Sprühregen

schwacher Regen

aufgebrochene Bewölkung in 1900 ft

Temperatur 7.0°C

Taupunkt 3.0°C

Luftfeuchtigkeit 76%

Luftdruck 1010 hPa

ETHF 202039Z 21012KT 9999 -DZRA BKN019 07/03 Q1010 WHT

Prognose für ETHF

vom 20.02. um 00:00 UTC

Zwischen 00:00 UTC und 00:00 UTC

Wind 12 kt aus 200° in Böen 22 kt

Sichtweite 10 km oder mehr

keine signifikanten Wettererscheinungen

aufgelockert bewölkt in 2000 ft

aufgebrochene Bewölkung in 5000 ft


Zwischen 00:00 UTC und 00:00 UTC zeitweise

Wind 15 kt aus 210° in Böen 25 kt

Sichtweite 7000 m

schwacher Regen

aufgebrochene Bewölkung in 2000 ft


Zwischen 00:00 UTC und 00:00 UTC zeitweise

Wind 20 kt aus 210° in Böen 30 kt

Sichtweite 4000 m

Regen

aufgelockert bewölkt in 1000 ft

aufgebrochene Bewölkung in 2000 ft


Zwischen 00:00 UTC und 00:00 UTC zeitweise

Wind 20 kt aus 250° in Böen 35 kt

Sichtweite 4000 m

Regenschauer

aufgelockert bewölkt in 700 ft

aufgebrochene Bewölkung in 1200 ft

TAF AMD ETHF 201417Z 2015/2024 20012G22KT 9999 NSW SCT020 BKN050 TEMPO 2019/2021 21015G25KT 7000 -RA BKN020 TEMPO 2021/2022 21020G30KT 4000 RA SCT010 BKN020 TEMPO 2022/2024 25020G35KT 4000 SHRA SCT007 BKN012CB CANCEL 1500
Impressum